Alinda, Pennsylvania
Current Conditions -  °F | °C
As of 2:56 PM on Monday 24 Nov 2014 (Local Time) from KCXY Reporting Station
Clear Clear  
Wind Chill: 70°   Ceiling: Unl
Heat Index: 70°   Visibility: 10mi
Dew Point: 52°   Wind: 17mph
Humidity: 53%   Direction: 210°SSW
Pressure: 29.55"   Gusts: 29mph
Location:  40.3086°N, 77.3363°W
Report Text: KCXY 241956Z 21015G25KT 10SM CLR 21/11 A2955 RMK AO2 PK WND 22028/1945 SLP007 T02110111
Loading
Personal Weather Stations






























Interactive Weather Map New forecast layout! Learn more

10-Day Weather Forecast

Advertisements
Track Severe Weather on mobile